createdAt,value
2019-01-18T00:01:10.177Z,100.00
2019-01-18T00:03:44.015Z,100.00
2019-01-18T00:06:15.071Z,100.00
2019-01-18T00:08:51.401Z,100.00
2019-01-18T00:11:22.574Z,100.00
2019-01-18T00:13:57.512Z,100.00
2019-01-18T00:16:28.635Z,100.00
2019-01-18T00:18:59.501Z,100.00
2019-01-18T00:21:32.694Z,100.00
2019-01-18T00:24:06.549Z,100.00
2019-01-18T00:26:37.630Z,100.00
2019-01-18T00:29:08.385Z,100.00
2019-01-18T00:31:39.816Z,100.00
2019-01-18T00:34:10.875Z,100.00
2019-01-18T00:36:41.697Z,100.00
2019-01-18T00:39:12.507Z,100.00
2019-01-18T00:41:43.887Z,100.00
2019-01-18T00:44:14.723Z,100.00
2019-01-18T00:46:45.487Z,100.00
2019-01-18T00:49:16.464Z,100.00
2019-01-18T00:51:47.444Z,100.00
2019-01-18T00:54:18.181Z,100.00
2019-01-18T00:56:50.683Z,100.00
2019-01-18T00:59:23.062Z,100.00
2019-01-18T01:01:53.914Z,100.00
2019-01-18T01:04:25.082Z,100.00
2019-01-18T01:06:55.844Z,100.00
2019-01-18T01:09:30.969Z,100.00
2019-01-18T01:12:01.973Z,100.00
2019-01-18T01:14:34.906Z,100.00
2019-01-18T01:17:06.200Z,100.00
2019-01-18T01:19:36.978Z,100.00
2019-01-18T01:22:07.790Z,100.00
2019-01-18T01:24:44.634Z,100.00
2019-01-18T01:27:15.775Z,100.00
2019-01-18T01:29:46.564Z,100.00
2019-01-18T01:32:18.214Z,100.00
2019-01-18T01:34:48.998Z,100.00
2019-01-18T01:37:19.773Z,100.00
2019-01-18T01:39:50.586Z,100.00
2019-01-18T01:42:22.500Z,100.00
2019-01-18T01:44:53.237Z,100.00
2019-01-18T01:47:24.036Z,100.00
2019-01-18T01:49:54.838Z,100.00
2019-01-18T01:52:25.659Z,100.00
2019-01-18T01:54:56.495Z,100.00
2019-01-18T01:57:27.307Z,100.00
2019-01-18T01:59:58.460Z,100.00
2019-01-18T02:02:29.668Z,100.00
2019-01-18T02:05:01.185Z,100.00
2019-01-18T02:07:32.050Z,100.00
2019-01-18T02:10:02.890Z,100.00
2019-01-18T02:12:33.706Z,100.00
2019-01-18T02:15:05.349Z,100.00
2019-01-18T02:17:36.084Z,100.00
2019-01-18T02:20:08.037Z,100.00
2019-01-18T02:22:40.481Z,100.00
2019-01-18T02:25:11.258Z,100.00
2019-01-18T02:27:42.084Z,100.00
2019-01-18T02:30:15.974Z,100.00
2019-01-18T02:32:46.827Z,100.00
2019-01-18T02:35:17.588Z,100.00
2019-01-18T02:37:48.423Z,100.00
2019-01-18T02:40:19.332Z,100.00
2019-01-18T02:42:51.638Z,100.00
2019-01-18T02:45:27.434Z,100.00
2019-01-18T02:47:58.673Z,100.00
2019-01-18T02:50:30.837Z,100.00
2019-01-18T02:53:03.194Z,100.00
2019-01-18T02:55:34.284Z,100.00
2019-01-18T02:58:05.534Z,100.00
2019-01-18T03:00:36.390Z,100.00
2019-01-18T03:03:07.284Z,100.00
2019-01-18T03:05:38.057Z,100.00
2019-01-18T03:08:09.169Z,100.00
2019-01-18T03:10:40.406Z,100.00
2019-01-18T03:13:12.151Z,100.00
2019-01-18T03:15:43.322Z,100.00
2019-01-18T03:18:14.126Z,100.00
2019-01-18T03:20:46.277Z,100.00
2019-01-18T03:23:17.341Z,100.00
2019-01-18T03:25:48.143Z,100.00
2019-01-18T03:28:18.872Z,100.00
2019-01-18T03:30:52.842Z,100.00
2019-01-18T03:33:23.692Z,100.00
2019-01-18T03:35:55.941Z,100.00
2019-01-18T03:38:27.099Z,100.00
2019-01-18T03:40:57.933Z,100.00
2019-01-18T03:43:28.750Z,100.00
2019-01-18T03:45:59.552Z,100.00
2019-01-18T03:48:31.387Z,100.00
2019-01-18T03:51:02.247Z,100.00
2019-01-18T03:53:33.028Z,100.00
2019-01-18T03:56:03.848Z,100.00
2019-01-18T03:58:35.042Z,100.00
2019-01-18T04:01:06.345Z,100.00
2019-01-18T04:03:43.912Z,100.00
2019-01-18T04:06:18.485Z,100.00
2019-01-18T04:08:49.895Z,100.00
2019-01-18T04:11:21.174Z,100.00
2019-01-18T04:13:55.333Z,100.00
2019-01-18T04:16:26.719Z,100.00
2019-01-18T04:18:59.312Z,100.00
2019-01-18T04:21:30.430Z,100.00
2019-01-18T04:24:12.324Z,100.00
2019-01-18T04:26:48.649Z,100.00
2019-01-18T04:29:19.439Z,100.00
2019-01-18T04:31:50.244Z,100.00
2019-01-18T04:34:21.285Z,100.00
2019-01-18T04:36:52.390Z,100.00
2019-01-18T04:39:23.105Z,100.00
2019-01-18T04:41:54.273Z,100.00
2019-01-18T04:44:25.767Z,100.00
2019-01-18T04:46:56.524Z,100.00
2019-01-18T04:49:27.361Z,100.00
2019-01-18T04:51:58.438Z,100.00
2019-01-18T04:54:29.916Z,100.00
2019-01-18T04:57:00.735Z,100.00
2019-01-18T04:59:36.001Z,100.00
2019-01-18T05:02:06.854Z,100.00
2019-01-18T05:04:39.405Z,100.00
2019-01-18T05:07:10.614Z,100.00
2019-01-18T05:09:41.466Z,100.00
2019-01-18T05:12:12.291Z,100.00
2019-01-18T05:14:43.164Z,100.00
2019-01-18T05:17:14.150Z,100.00
2019-01-18T05:19:49.383Z,100.00
2019-01-18T05:22:20.146Z,100.00
2019-01-18T05:24:51.079Z,100.00
2019-01-18T05:27:22.153Z,100.00
2019-01-18T05:29:52.959Z,100.00
2019-01-18T05:32:26.363Z,100.00
2019-01-18T05:35:06.289Z,100.00
2019-01-18T05:38:00.409Z,100.00
2019-01-18T05:40:31.426Z,100.00
2019-01-18T05:43:06.532Z,100.00
2019-01-18T05:45:37.502Z,100.00
2019-01-18T05:48:09.019Z,100.00
2019-01-18T05:50:43.195Z,100.00
2019-01-18T05:53:16.611Z,100.00
2019-01-18T05:55:48.998Z,100.00
2019-01-18T05:58:21.383Z,100.00
2019-01-18T06:01:05.315Z,100.00
2019-01-18T06:03:36.114Z,100.00
2019-01-18T06:06:07.113Z,100.00
2019-01-18T06:08:38.051Z,100.00
2019-01-18T06:11:08.846Z,100.00
2019-01-18T06:13:39.687Z,100.00
2019-01-18T06:16:10.732Z,100.00
2019-01-18T06:18:42.761Z,100.00
2019-01-18T06:21:13.584Z,100.00
2019-01-18T06:23:44.407Z,100.00
2019-01-18T06:26:15.149Z,100.00
2019-01-18T06:28:45.963Z,100.00
2019-01-18T06:31:17.107Z,100.00
2019-01-18T06:33:47.876Z,100.00
2019-01-18T06:36:20.664Z,100.00
2019-01-18T06:38:51.826Z,100.00
2019-01-18T06:41:57.156Z,100.00
2019-01-18T06:44:28.166Z,100.00
2019-01-18T06:47:04.510Z,100.00
2019-01-18T06:49:42.445Z,100.00
2019-01-18T06:52:13.248Z,100.00
2019-01-18T06:54:44.098Z,100.00
2019-01-18T06:57:15.437Z,100.00
2019-01-18T06:59:46.198Z,100.00
2019-01-18T07:02:20.380Z,100.00
2019-01-18T07:04:51.214Z,100.00
2019-01-18T07:07:23.553Z,100.00
2019-01-18T07:10:03.978Z,100.00
2019-01-18T07:12:34.831Z,100.00
2019-01-18T07:15:06.307Z,100.00
2019-01-18T07:17:38.731Z,100.00
2019-01-18T07:20:11.893Z,100.00
2019-01-18T07:22:42.889Z,100.00
2019-01-18T07:25:16.810Z,100.00
2019-01-18T07:27:54.440Z,100.00
2019-01-18T07:30:27.740Z,100.00
2019-01-18T07:32:58.577Z,100.00
2019-01-18T07:35:29.927Z,100.00
2019-01-18T07:38:00.678Z,100.00
2019-01-18T07:40:34.734Z,100.00
2019-01-18T07:43:08.814Z,100.00
2019-01-18T07:45:39.845Z,100.00
2019-01-18T07:48:10.679Z,100.00
2019-01-18T07:50:41.489Z,100.00
2019-01-18T07:53:12.371Z,100.00
2019-01-18T07:55:43.455Z,100.00
2019-01-18T07:58:23.708Z,100.00
2019-01-18T08:01:02.809Z,100.00
2019-01-18T08:04:08.352Z,100.00
2019-01-18T08:06:46.718Z,100.00
2019-01-18T08:09:31.232Z,100.00
2019-01-18T08:12:03.538Z,98.52
2019-01-18T08:14:34.425Z,98.21
2019-01-18T08:17:05.796Z,98.58
2019-01-18T08:19:41.121Z,98.55
2019-01-18T08:22:13.495Z,98.63
2019-01-18T08:24:44.504Z,99.14
2019-01-18T08:27:27.933Z,98.81
2019-01-18T08:29:58.756Z,99.58
2019-01-18T08:32:33.572Z,98.56
2019-01-18T08:35:06.048Z,97.91
2019-01-18T08:37:36.876Z,99.45
2019-01-18T08:40:11.654Z,98.41
2019-01-18T08:42:45.202Z,98.88
2019-01-18T08:45:22.282Z,97.88
2019-01-18T08:47:53.108Z,97.95
2019-01-18T08:50:27.895Z,97.01
2019-01-18T08:52:59.140Z,97.06
2019-01-18T08:55:36.290Z,95.64
2019-01-18T08:58:07.356Z,96.72
2019-01-18T09:00:40.088Z,94.36
2019-01-18T09:03:12.888Z,94.45
2019-01-18T09:05:43.706Z,92.82
2019-01-18T09:08:14.795Z,94.58
2019-01-18T09:10:50.208Z,92.58
2019-01-18T09:13:22.906Z,92.33
2019-01-18T09:15:53.659Z,92.39
2019-01-18T09:18:24.475Z,91.95
2019-01-18T09:20:55.659Z,93.44
2019-01-18T09:23:26.483Z,92.33
2019-01-18T09:26:08.248Z,92.31
2019-01-18T09:28:41.146Z,92.04
2019-01-18T09:31:15.389Z,91.96
2019-01-18T09:33:49.019Z,91.86
2019-01-18T09:36:21.407Z,89.65
2019-01-18T09:38:55.904Z,90.54
2019-01-18T09:41:33.544Z,88.64
2019-01-18T09:44:08.077Z,89.85
2019-01-18T09:46:39.158Z,88.45
2019-01-18T09:49:13.226Z,88.81
2019-01-18T09:51:51.864Z,89.86
2019-01-18T09:54:24.822Z,89.11
2019-01-18T09:56:56.336Z,88.93
2019-01-18T09:59:27.535Z,89.06
2019-01-18T10:01:58.451Z,87.45
2019-01-18T10:04:29.277Z,87.46
2019-01-18T10:07:05.653Z,87.80
2019-01-18T10:09:36.893Z,86.83
2019-01-18T10:12:07.687Z,85.01
2019-01-18T10:14:50.393Z,84.73
2019-01-18T10:17:22.526Z,84.07
2019-01-18T10:19:54.364Z,84.84
2019-01-18T10:22:25.306Z,85.76
2019-01-18T10:28:24.806Z,85.60
2019-01-18T10:30:55.795Z,85.04
2019-01-18T10:33:36.874Z,85.72
2019-01-18T10:36:08.444Z,84.74
2019-01-18T10:38:39.447Z,83.31
2019-01-18T10:41:12.242Z,84.28
2019-01-18T10:43:44.732Z,82.66
2019-01-18T10:46:15.839Z,81.11
2019-01-18T10:48:46.637Z,78.25
2019-01-18T10:51:17.926Z,77.76
2019-01-18T10:53:52.426Z,78.96
2019-01-18T10:56:29.189Z,79.44
2019-01-18T10:59:00.179Z,78.34
2019-01-18T11:01:34.187Z,81.05
2019-01-18T11:04:05.053Z,80.39
2019-01-18T11:06:37.967Z,79.18
2019-01-18T11:09:10.782Z,81.42
2019-01-18T11:11:50.723Z,80.93
2019-01-18T11:14:25.666Z,81.85
2019-01-18T11:16:57.001Z,81.45
2019-01-18T11:19:28.239Z,79.42
2019-01-18T11:22:06.745Z,76.70
2019-01-18T11:24:45.195Z,75.37
2019-01-18T11:27:24.481Z,76.58
2019-01-18T11:30:01.764Z,73.65
2019-01-18T11:32:34.035Z,74.36
2019-01-18T11:35:06.114Z,73.86
2019-01-18T11:37:36.915Z,75.92
2019-01-18T11:40:13.800Z,75.97
2019-01-18T11:42:45.769Z,74.74
2019-01-18T11:45:18.391Z,76.24
2019-01-18T11:47:51.962Z,75.87
2019-01-18T11:50:27.151Z,76.54
2019-01-18T11:52:58.001Z,74.05
2019-01-18T11:55:34.524Z,77.78
2019-01-18T11:58:07.141Z,78.46
2019-01-18T12:00:38.108Z,79.10
2019-01-18T12:03:31.254Z,78.36
2019-01-18T12:06:04.962Z,77.71
2019-01-18T12:08:35.966Z,74.98
2019-01-18T12:11:13.796Z,74.64
2019-01-18T12:13:45.025Z,72.73
2019-01-18T12:16:17.625Z,74.78
2019-01-18T12:18:52.032Z,75.10
2019-01-18T12:21:22.751Z,73.25
2019-01-18T12:24:02.973Z,74.12
2019-01-18T12:26:33.952Z,71.58
2019-01-18T12:29:04.756Z,74.29
2019-01-18T12:31:37.235Z,74.62
2019-01-18T12:34:12.452Z,75.52
2019-01-18T12:36:50.293Z,74.00
2019-01-18T12:39:23.088Z,74.54
2019-01-18T12:41:59.508Z,75.72
2019-01-18T12:44:37.200Z,75.56
2019-01-18T12:47:10.476Z,75.49
2019-01-18T12:49:49.224Z,76.41
2019-01-18T12:52:21.494Z,76.04
2019-01-18T12:54:56.151Z,74.49
2019-01-18T12:57:35.934Z,75.13
2019-01-18T13:00:14.082Z,76.01
2019-01-18T13:02:47.184Z,75.20
2019-01-18T13:05:21.402Z,74.39
2019-01-18T13:07:52.546Z,76.87
2019-01-18T13:10:23.690Z,74.91
2019-01-18T13:13:00.749Z,75.36
2019-01-18T13:15:41.376Z,77.95
2019-01-18T13:18:14.189Z,79.16
2019-01-18T13:20:58.060Z,78.92
2019-01-18T13:23:28.520Z,77.48
2019-01-18T13:26:30.037Z,78.04
2019-01-18T13:29:04.328Z,78.67
2019-01-18T13:31:37.097Z,79.14
2019-01-18T13:34:07.950Z,80.03
2019-01-18T13:36:44.019Z,79.21
2019-01-18T13:39:27.455Z,79.17
2019-01-18T13:42:02.669Z,80.87
2019-01-18T13:44:33.495Z,81.56
2019-01-18T13:47:04.592Z,79.96
2019-01-18T13:49:35.449Z,83.83
2019-01-18T13:52:07.939Z,83.64
2019-01-18T13:54:38.918Z,84.30
2019-01-18T13:57:12.248Z,84.55
2019-01-18T13:59:42.510Z,84.75
2019-01-18T14:02:18.235Z,84.57
2019-01-18T14:05:11.268Z,84.90
2019-01-18T14:07:46.490Z,86.48
2019-01-18T14:10:25.832Z,88.41
2019-01-18T14:12:57.341Z,88.61
2019-01-18T14:15:30.868Z,88.97
2019-01-18T14:18:02.099Z,88.79
2019-01-18T14:20:33.405Z,88.64
2019-01-18T14:23:04.221Z,89.24
2019-01-18T14:25:35.061Z,90.14
2019-01-18T14:28:11.053Z,90.50
2019-01-18T14:30:41.840Z,90.55
2019-01-18T14:33:13.931Z,90.35
2019-01-18T14:35:45.496Z,91.10
2019-01-18T14:38:16.310Z,90.94
2019-01-18T14:40:50.742Z,91.26
2019-01-18T14:43:24.951Z,92.65
2019-01-18T14:45:58.467Z,93.00
2019-01-18T14:48:29.612Z,92.43
2019-01-18T14:51:01.522Z,91.95
2019-01-18T14:53:34.973Z,91.71
2019-01-18T14:56:06.145Z,91.23
2019-01-18T14:58:37.606Z,90.36
2019-01-18T15:01:12.766Z,91.26
2019-01-18T15:03:44.193Z,90.87
2019-01-18T15:06:16.973Z,90.99
2019-01-18T15:08:48.448Z,91.00
2019-01-18T15:11:21.969Z,91.01
2019-01-18T15:13:56.992Z,90.86
2019-01-18T15:16:36.258Z,90.88
2019-01-18T15:19:07.978Z,90.64
2019-01-18T15:21:43.089Z,90.44
2019-01-18T15:24:15.410Z,90.46
2019-01-18T15:26:46.421Z,89.92
2019-01-18T15:29:22.666Z,90.84
2019-01-18T15:31:54.134Z,90.77
2019-01-18T15:34:49.704Z,90.09
2019-01-18T15:37:45.046Z,90.44
2019-01-18T15:40:19.768Z,90.67
2019-01-18T15:43:02.669Z,90.71
2019-01-18T15:45:33.525Z,90.63
2019-01-18T15:48:15.948Z,90.64
2019-01-18T15:50:50.720Z,90.23
2019-01-18T15:53:21.812Z,89.54
2019-01-18T15:55:53.470Z,89.41
2019-01-18T15:58:24.343Z,89.87
2019-01-18T16:00:55.606Z,89.22
2019-01-18T16:03:33.927Z,89.24
2019-01-18T16:06:08.349Z,89.21
2019-01-18T16:08:42.463Z,88.41
2019-01-18T16:11:13.620Z,87.98
2019-01-18T16:13:57.039Z,89.16
2019-01-18T16:16:42.705Z,89.37
2019-01-18T16:19:19.261Z,89.03
2019-01-18T16:21:50.493Z,88.80
2019-01-18T16:24:23.509Z,88.36
2019-01-18T16:26:58.248Z,88.83
2019-01-18T16:29:36.742Z,88.69
2019-01-18T16:32:07.867Z,88.14
2019-01-18T16:34:39.795Z,87.41
2019-01-18T16:37:27.127Z,87.50
2019-01-18T16:39:59.808Z,87.93
2019-01-18T16:42:37.923Z,87.90
2019-01-18T16:45:10.532Z,87.74
2019-01-18T16:47:41.461Z,87.54
2019-01-18T16:50:15.954Z,87.39
2019-01-18T16:52:48.910Z,86.93
2019-01-18T16:55:27.450Z,86.75
2019-01-18T16:58:04.351Z,86.39
2019-01-18T17:00:42.820Z,86.24
2019-01-18T17:03:30.251Z,85.73
2019-01-18T17:06:08.615Z,85.53
2019-01-18T17:08:43.286Z,85.51
2019-01-18T17:11:22.723Z,84.87
2019-01-18T17:14:01.574Z,86.09
2019-01-18T17:16:57.451Z,85.89
2019-01-18T17:19:28.474Z,85.99
2019-01-18T17:22:02.705Z,85.26
2019-01-18T17:24:36.907Z,83.81
2019-01-18T17:27:08.430Z,85.51
2019-01-18T17:30:16.269Z,85.07
2019-01-18T17:32:52.106Z,83.96
2019-01-18T17:35:53.500Z,84.40
2019-01-18T17:39:59.319Z,84.88
2019-01-18T17:42:57.939Z,84.82
2019-01-18T17:46:02.668Z,84.56
2019-01-18T17:49:07.267Z,84.06
2019-01-18T17:56:09.221Z,83.73
2019-01-18T17:59:16.428Z,83.84
2019-01-18T18:02:40.042Z,84.26
2019-01-18T18:05:50.214Z,84.25
2019-01-18T18:08:55.770Z,83.88
2019-01-18T18:12:20.206Z,84.40
2019-01-18T18:15:49.047Z,84.20
2019-01-18T18:18:51.820Z,84.66
2019-01-18T18:21:54.175Z,84.51
2019-01-18T18:24:50.446Z,83.82
2019-01-18T18:28:08.439Z,83.95
2019-01-18T18:31:03.969Z,83.87
2019-01-18T18:34:23.453Z,83.75
2019-01-18T18:37:04.167Z,83.83
2019-01-18T18:40:23.049Z,82.91
2019-01-18T18:43:29.881Z,83.03
2019-01-18T18:46:43.980Z,84.42
2019-01-18T18:49:58.748Z,83.10
2019-01-18T18:53:11.625Z,82.87
2019-01-18T18:56:05.104Z,83.12
2019-01-18T18:59:29.067Z,83.28
2019-01-18T19:03:03.203Z,83.28
2019-01-18T19:06:10.042Z,83.12
2019-01-18T19:09:36.075Z,83.32
2019-01-18T19:13:06.376Z,83.09
2019-01-18T19:16:39.048Z,83.22
2019-01-18T19:19:38.438Z,83.73
2019-01-18T19:23:05.403Z,83.43
2019-01-18T19:26:27.985Z,82.40
2019-01-18T19:29:54.738Z,83.04
2019-01-18T19:33:03.399Z,83.44
2019-01-18T19:36:15.421Z,83.37
2019-01-18T19:39:27.970Z,83.18
2019-01-18T19:43:16.029Z,82.89
2019-01-18T19:46:31.072Z,83.24
2019-01-18T19:49:45.984Z,83.35
2019-01-18T19:53:06.557Z,82.95
2019-01-18T19:56:23.683Z,83.24
2019-01-18T19:59:36.041Z,82.99
2019-01-18T20:02:53.300Z,82.93
2019-01-18T20:06:15.044Z,82.99
2019-01-18T20:09:41.808Z,82.79
2019-01-18T20:12:45.412Z,82.84
2019-01-18T20:19:51.995Z,82.94
2019-01-18T20:22:50.260Z,83.26
2019-01-18T20:25:40.054Z,83.23
2019-01-18T20:29:04.668Z,82.81
2019-01-18T20:32:37.489Z,82.61
2019-01-18T20:35:34.186Z,82.64
2019-01-18T20:39:09.998Z,83.36
2019-01-18T20:42:34.094Z,83.49
2019-01-18T20:45:45.059Z,83.30
2019-01-18T20:48:41.162Z,82.84
2019-01-18T20:52:16.446Z,82.96
2019-01-18T20:55:17.553Z,83.25
2019-01-18T20:58:22.254Z,82.68
2019-01-18T21:01:50.648Z,83.24
2019-01-18T21:04:55.965Z,83.13
2019-01-18T21:07:55.293Z,83.28
2019-01-18T21:11:29.723Z,82.93
2019-01-18T21:14:45.568Z,82.09
2019-01-18T21:18:16.783Z,82.54
2019-01-18T21:21:28.843Z,83.04
2019-01-18T21:24:31.234Z,83.07
2019-01-18T21:27:42.921Z,82.67
2019-01-18T21:31:13.058Z,83.20
2019-01-18T21:34:18.792Z,84.57
2019-01-18T21:37:56.191Z,83.75
2019-01-18T21:41:03.667Z,82.54
2019-01-18T21:44:23.915Z,82.78
2019-01-18T21:47:31.109Z,82.53
2019-01-18T21:50:55.229Z,82.90
2019-01-18T21:53:53.372Z,82.12
2019-01-18T21:56:47.798Z,82.50
2019-01-18T21:59:47.458Z,83.07
2019-01-18T22:02:33.114Z,82.15
2019-01-18T22:05:25.033Z,82.19
2019-01-18T22:08:24.232Z,82.25
2019-01-18T22:11:46.409Z,82.68
2019-01-18T22:14:51.998Z,82.81
2019-01-18T22:18:11.706Z,82.67
2019-01-18T22:21:25.131Z,82.80
2019-01-18T22:24:25.644Z,82.18
2019-01-18T22:27:36.461Z,82.40
2019-01-18T22:30:36.143Z,82.88
2019-01-18T22:33:35.606Z,82.12
2019-01-18T22:36:38.782Z,82.86
2019-01-18T22:40:02.657Z,82.80
2019-01-18T22:43:09.550Z,83.19
2019-01-18T22:46:22.905Z,82.36
2019-01-18T22:49:27.295Z,81.92
2019-01-18T22:53:09.704Z,82.25
2019-01-18T22:56:05.962Z,82.64
2019-01-18T22:59:33.297Z,82.46
2019-01-18T23:02:55.859Z,82.21
2019-01-18T23:05:59.345Z,82.21
2019-01-18T23:09:25.631Z,81.17
2019-01-18T23:12:24.070Z,81.89
2019-01-18T23:15:51.304Z,82.20
2019-01-18T23:18:33.013Z,81.22
2019-01-18T23:21:40.239Z,82.79
2019-01-18T23:24:56.503Z,83.04
2019-01-18T23:28:36.807Z,83.11
2019-01-18T23:31:39.819Z,83.13
2019-01-18T23:34:27.227Z,84.36
2019-01-18T23:37:26.468Z,83.64
2019-01-18T23:40:25.038Z,82.95
2019-01-18T23:43:21.757Z,83.19
2019-01-18T23:46:39.218Z,83.41
2019-01-18T23:49:41.859Z,83.51
2019-01-18T23:52:54.971Z,82.63
2019-01-18T23:55:38.045Z,82.70
2019-01-18T23:58:56.644Z,82.45
